Kismet, KS

4:48 PM CST on November 25, 2014 (GMT -0600)
Country | Change Station
CLOSE
Current Station
Personal Weather Station
Location: Kismet, KS
Elevation: 2791 ft
Nearby Weather Stations

Elev 2791 ft 37.26 °N, 100.91 °W | Updated 12 seconds ago

Partly Cloudy
Partly Cloudy
51.0 °F
Feels Like 51.0 °F
N
0.0
Wind Variable Wind from WSW
Gusts 14.0 mph

Today
High -- | Low -- °F
--% Chance of Precip.
Yesterday
High -- | Low -- °F
Precip. -- in
7:32 AM 5:27 PM
Waxing Crescent, 14% visible
Pressure 29.96 in
Visibility 10.0 miles
Clouds Clear
Dew Point 20 °F
Humidity 29%
Rainfall 0.00 in
Snow Depth Not available.
UV 0 out of 12
Pollen .10 out of 12
Air Quality Not available.
Flu Activity Not available.
METAR KLBL 252235Z AUTO 22010KT 10SM CLR 11/M08 A2996 RMK AO1

More Conditions Fewer Conditions

Pressure 29.96 in
Visibility 10.0 miles
Clouds Clear
Dew Point 20 °F
Humidity 29%
Rainfall 0.00 in
Snow Depth Not available.
UV 0 out of 12
Pollen .10 out of 12
Air Quality Not available.
Flu Activity Not available.
METAR KLBL 252235Z AUTO 22010KT 10SM CLR 11/M08 A2996 RMK AO1

More Conditions Fewer Conditions

10-Day Weather Forecast

Almanac

Astronomy

Nov. 25, 2014 Rise Set
Actual Time
Civil Twilight
Nautical Twilight
Astronomical Twilight
Moon
Length of Visible Light
Length of Day
Tomorrow will be .
, % of the Moon is Illuminated

Today's Extremes

State Highs State Lows

Community

WunderPhotos

Upload Photos

1,773,609 photos uploaded!

WunderBlogs® & News

Nearby

Air Quality

  Air Quality AQ Index Pollutant
Not available.

Snow Depth

Station Depth Elevation

Earthquake Activity

City Distance Mag. Time & Date
Minimum magnitude displayed is 2.5.

Coastal Water Temperatures

Place Temperature

Nearby Weather Stations